Eviapetrol I — SY5401 — position and weather

sailwx.info

Track history (hours):
 
Tides and Currents Weather Stations Pressure Air Temp Water Temp Dewpoint Dewpoint Depression Visibility Wind Speed Wind Dir Waves Ship Positions

Eviapetrol I

Last reported at 2015-Sep-02 03:33 UTC. Time now 2015-Sep-02 04:30 UTC.
Position N 36°12' E 024°32'.

Length 75 m; draft 4.8 m.

Type: Tanker. MMSI: 240285000.

Date/timePositionNaut miles runAvg speedWind from/ knotsBaromVisibWave heightAir tempDewpointWater temp
2015-Sep-02 03:33N 36°12' E 024°32'10 9.7
2015-Sep-02 02:33N 36°20' E 024°26'21 9.4
2015-Sep-02 00:20N 36°39' E 024°14'8 9.2
2015-Sep-01 23:29N 36°46' E 024°11'9 9.5
2015-Sep-01 22:33N 36°54' E 024°06'9 9.4
2015-Sep-01 21:33N 37°03' E 024°01'10 9.2
2015-Sep-01 20:30N 37°12' E 023°57'9 8.7
2015-Sep-01 19:24N 37°21' E 023°52'7 8.7
2015-Sep-01 18:33N 37°28' E 023°49'9 8.6
2015-Sep-01 17:33N 37°36' E 023°45'9 9.1
2015-Sep-01 16:33N 37°44' E 023°40'9 8.6
2015-Sep-01 15:33N 37°52' E 023°36'7 7.2
2015-Sep-01 14:33N 37°58' E 023°33'4 3.9
2015-Sep-01 13:31N 38°02' E 023°30'0 0.0
2015-Sep-01 12:31N 38°02' E 023°30'0 0.0
2015-Sep-01 11:28N 38°02' E 023°30'0 0.0
2015-Sep-01 10:31N 38°02' E 023°30'0 0.0
2015-Sep-01 09:22N 38°02' E 023°30'0 0.0
2015-Sep-01 08:28N 38°02' E 023°30'0 0.0
2015-Sep-01 07:32N 38°02' E 023°30'3 2.8
2015-Sep-01 06:33N 38°02' E 023°34'1 1.2
2015-Sep-01 05:25N 38°02' E 023°36'0 0.0
2015-Sep-01 04:28N 38°02' E 023°36'0 0.0
2015-Sep-01 03:22N 38°02' E 023°36'0 0.0
2015-Sep-01 02:31N 38°02' E 023°36'0 0.0
2015-Sep-01 01:28N 38°02' E 023°36'0 0.0
2015-Sep-01 00:28N 38°02' E 023°36'0 0.0
2015-Aug-31 23:28N 38°02' E 023°36'0 0.0
2015-Aug-31 22:28N 38°02' E 023°36'0 0.0
2015-Aug-31 21:31N 38°02' E 023°36'0 0.0
2015-Aug-31 20:31N 38°02' E 023°36'0 0.0
2015-Aug-31 19:25N 38°02' E 023°36'1 0.7
2015-Aug-31 18:33N 38°01' E 023°35'8 8.5
2015-Aug-31 17:34N 37°59' E 023°25'8 7.6
2015-Aug-31 16:33N 37°56' E 023°16'  
2015-Aug-28 17:25N 37°54' E 023°04'7 8.3
2015-Aug-28 16:33N 37°55' E 023°12'9 9.2
2015-Aug-28 15:33N 37°57' E 023°24'8 7.6
2015-Aug-28 14:33N 38°01' E 023°32'3 2.8
2015-Aug-28 13:33N 38°01' E 023°36'0 0.0
2015-Aug-28 12:30N 38°01' E 023°36'0 0.0
2015-Aug-28 11:30N 38°01' E 023°36'0 0.0
2015-Aug-28 10:33N 38°01' E 023°36'0 0.0
2015-Aug-28 09:09N 38°01' E 023°36'0 0.0
2015-Aug-28 08:30N 38°01' E 023°36'0 0.0
2015-Aug-28 07:33N 38°01' E 023°36'0 0.0
2015-Aug-28 06:18N 38°01' E 023°36'0 0.0
2015-Aug-28 05:30N 38°01' E 023°36'0 0.0
2015-Aug-28 04:30N 38°01' E 023°36'1 0.7
2015-Aug-28 03:32N 38°01' E 023°35'1 0.2
2015-Aug-27 22:14N 38°02' E 023°36'0 0.0
2015-Aug-27 21:32N 38°02' E 023°36'0 0.0
2015-Aug-27 20:32N 38°02' E 023°36'0 0.0
2015-Aug-27 19:32N 38°02' E 023°36'0 0.0
2015-Aug-27 18:32N 38°02' E 023°36'0 0.0
2015-Aug-27 17:29N 38°02' E 023°36'1 1.0
2015-Aug-27 16:34N 38°01' E 023°35'6 6.0
2015-Aug-27 15:34N 37°55' E 023°36'9 9.1
2015-Aug-27 14:34N 37°47' E 023°41'9 9.2
2015-Aug-27 13:34N 37°39' E 023°46'9 8.8
2015-Aug-27 12:31N 37°29' E 023°47'94 3.0
2015-Aug-26 05:33N 36°11' E 024°51'10 9.6
2015-Aug-26 04:33N 36°17' E 025°00'9 9.3
2015-Aug-26 03:33N 36°23' E 025°09'9 9.2
2015-Aug-26 02:33N 36°29' E 025°17'10 9.7
2015-Aug-26 01:33N 36°36' E 025°26'10 9.8
2015-Aug-26 00:33N 36°42' E 025°35'1010.1
2015-Aug-25 23:33N 36°50' E 025°44'10 9.6
2015-Aug-25 22:31N 36°59' E 025°50'9 9.7
2015-Aug-25 21:34N 37°08' E 025°53'9 9.4
2015-Aug-25 20:33N 37°17' E 025°53'9 9.1
2015-Aug-25 19:33N 37°26' E 025°54'  
2015-Aug-23 13:33N 37°43' E 024°18'9 8.0
2015-Aug-23 12:23N 37°37' E 024°09'7 8.3
2015-Aug-23 11:29N 37°37' E 023°59'8 9.1
2015-Aug-23 10:33N 37°38' E 023°49'8 8.4
2015-Aug-23 09:33N 37°44' E 023°40'9 9.1
2015-Aug-23 08:33N 37°52' E 023°36'8 8.1
2015-Aug-23 07:33N 37°60' E 023°33'3 2.8
2015-Aug-23 06:31N 38°02' E 023°36'0 0.0
2015-Aug-23 05:31N 38°02' E 023°36'0 0.0
2015-Aug-23 04:28N 38°02' E 023°36'  
Track history (hours):
 
Tides and Currents Weather Stations Pressure Air Temp Water Temp Dewpoint Dewpoint Depression Visibility Wind Speed Wind Dir Waves Ship Positions

Eviapetrol I

Last reported at 2015-Sep-02 03:33 UTC. Time now 2015-Sep-02 04:30 UTC.
Position N 36°12' E 024°32'.

Length 75 m; draft 4.8 m.

Type: Tanker. MMSI: 240285000.

Date/timePositionNaut miles runAvg speedWind from/ knotsBaromVisibWave heightAir tempDewpointWater temp
2015-Sep-02 03:33N 36°12' E 024°32'10 9.7
2015-Sep-02 02:33N 36°20' E 024°26'21 9.4
2015-Sep-02 00:20N 36°39' E 024°14'8 9.2
2015-Sep-01 23:29N 36°46' E 024°11'9 9.5
2015-Sep-01 22:33N 36°54' E 024°06'9 9.4
2015-Sep-01 21:33N 37°03' E 024°01'10 9.2
2015-Sep-01 20:30N 37°12' E 023°57'9 8.7
2015-Sep-01 19:24N 37°21' E 023°52'7 8.7
2015-Sep-01 18:33N 37°28' E 023°49'9 8.6
2015-Sep-01 17:33N 37°36' E 023°45'9 9.1
2015-Sep-01 16:33N 37°44' E 023°40'9 8.6
2015-Sep-01 15:33N 37°52' E 023°36'7 7.2
2015-Sep-01 14:33N 37°58' E 023°33'4 3.9
2015-Sep-01 13:31N 38°02' E 023°30'0 0.0
2015-Sep-01 12:31N 38°02' E 023°30'0 0.0
2015-Sep-01 11:28N 38°02' E 023°30'0 0.0
2015-Sep-01 10:31N 38°02' E 023°30'0 0.0
2015-Sep-01 09:22N 38°02' E 023°30'0 0.0
2015-Sep-01 08:28N 38°02' E 023°30'0 0.0
2015-Sep-01 07:32N 38°02' E 023°30'3 2.8
2015-Sep-01 06:33N 38°02' E 023°34'1 1.2
2015-Sep-01 05:25N 38°02' E 023°36'0 0.0
2015-Sep-01 04:28N 38°02' E 023°36'0 0.0
2015-Sep-01 03:22N 38°02' E 023°36'0 0.0
2015-Sep-01 02:31N 38°02' E 023°36'0 0.0
2015-Sep-01 01:28N 38°02' E 023°36'0 0.0
2015-Sep-01 00:28N 38°02' E 023°36'0 0.0
2015-Aug-31 23:28N 38°02' E 023°36'0 0.0
2015-Aug-31 22:28N 38°02' E 023°36'0 0.0
2015-Aug-31 21:31N 38°02' E 023°36'0 0.0
2015-Aug-31 20:31N 38°02' E 023°36'0 0.0
2015-Aug-31 19:25N 38°02' E 023°36'1 0.7
2015-Aug-31 18:33N 38°01' E 023°35'8 8.5
2015-Aug-31 17:34N 37°59' E 023°25'8 7.6
2015-Aug-31 16:33N 37°56' E 023°16'  
2015-Aug-28 17:25N 37°54' E 023°04'7 8.3
2015-Aug-28 16:33N 37°55' E 023°12'9 9.2
2015-Aug-28 15:33N 37°57' E 023°24'8 7.6
2015-Aug-28 14:33N 38°01' E 023°32'3 2.8
2015-Aug-28 13:33N 38°01' E 023°36'0 0.0
2015-Aug-28 12:30N 38°01' E 023°36'0 0.0
2015-Aug-28 11:30N 38°01' E 023°36'0 0.0
2015-Aug-28 10:33N 38°01' E 023°36'0 0.0
2015-Aug-28 09:09N 38°01' E 023°36'0 0.0
2015-Aug-28 08:30N 38°01' E 023°36'0 0.0
2015-Aug-28 07:33N 38°01' E 023°36'0 0.0
2015-Aug-28 06:18N 38°01' E 023°36'0 0.0
2015-Aug-28 05:30N 38°01' E 023°36'0 0.0
2015-Aug-28 04:30N 38°01' E 023°36'1 0.7
2015-Aug-28 03:32N 38°01' E 023°35'1 0.2
2015-Aug-27 22:14N 38°02' E 023°36'0 0.0
2015-Aug-27 21:32N 38°02' E 023°36'0 0.0
2015-Aug-27 20:32N 38°02' E 023°36'0 0.0
2015-Aug-27 19:32N 38°02' E 023°36'0 0.0
2015-Aug-27 18:32N 38°02' E 023°36'0 0.0
2015-Aug-27 17:29N 38°02' E 023°36'1 1.0
2015-Aug-27 16:34N 38°01' E 023°35'6 6.0
2015-Aug-27 15:34N 37°55' E 023°36'9 9.1
2015-Aug-27 14:34N 37°47' E 023°41'9 9.2
2015-Aug-27 13:34N 37°39' E 023°46'9 8.8
2015-Aug-27 12:31N 37°29' E 023°47'94 3.0
2015-Aug-26 05:33N 36°11' E 024°51'10 9.6
2015-Aug-26 04:33N 36°17' E 025°00'9 9.3
2015-Aug-26 03:33N 36°23' E 025°09'9 9.2
2015-Aug-26 02:33N 36°29' E 025°17'10 9.7
2015-Aug-26 01:33N 36°36' E 025°26'10 9.8
2015-Aug-26 00:33N 36°42' E 025°35'1010.1
2015-Aug-25 23:33N 36°50' E 025°44'10 9.6
2015-Aug-25 22:31N 36°59' E 025°50'9 9.7
2015-Aug-25 21:34N 37°08' E 025°53'9 9.4
2015-Aug-25 20:33N 37°17' E 025°53'9 9.1
2015-Aug-25 19:33N 37°26' E 025°54'  
2015-Aug-23 13:33N 37°43' E 024°18'9 8.0
2015-Aug-23 12:23N 37°37' E 024°09'7 8.3
2015-Aug-23 11:29N 37°37' E 023°59'8 9.1
2015-Aug-23 10:33N 37°38' E 023°49'8 8.4
2015-Aug-23 09:33N 37°44' E 023°40'9 9.1
2015-Aug-23 08:33N 37°52' E 023°36'8 8.1
2015-Aug-23 07:33N 37°60' E 023°33'3 2.8
2015-Aug-23 06:31N 38°02' E 023°36'0 0.0
2015-Aug-23 05:31N 38°02' E 023°36'0 0.0
2015-Aug-23 04:28N 38°02' E 023°36'  

Dump ship's entire track history